Time;durP1;ratioP1;P1;durP2;ratioP2;P2;SDS_P1;SDS_P2;PMS_P1;PMS_P2;Temp;Humidity;BMP_temperature;BMP_pressure;BME280_temperature;BME280_humidity;BME280_pressure;Samples;Min_cycle;Max_cycle;Signal;HPM_P1;HPM_P2
2022/04/28 00:01:06;;;;;;;18.03;9.67;;;8.70;90.90;;;;;;5017068;28;20227;-73
2022/04/28 00:03:32;;;;;;;15.73;9.30;;;8.80;91.00;;;;;;5026286;28;20435;-75
2022/04/28 00:05:58;;;;;;;14.10;8.87;;;8.70;90.90;;;;;;5015394;28;20421;-81
2022/04/28 00:08:24;;;;;;;12.17;7.93;;;8.70;91.00;;;;;;5020376;28;20470;-74
2022/04/28 00:10:51;;;;;;;15.07;8.47;;;8.60;90.90;;;;;;5017815;28;20451;-74
2022/04/28 00:13:17;;;;;;;13.93;8.90;;;8.60;91.00;;;;;;5012302;28;20461;-75
2022/04/28 00:15:43;;;;;;;12.87;8.73;;;8.60;91.00;;;;;;5014648;28;20181;-76
2022/04/28 00:18:09;;;;;;;14.80;9.07;;;8.60;91.00;;;;;;5014564;28;20931;-75
2022/04/28 00:20:35;;;;;;;15.57;9.17;;;8.60;91.00;;;;;;5023276;28;20580;-76
2022/04/28 00:23:01;;;;;;;14.00;8.47;;;8.60;90.90;;;;;;5013620;28;20421;-74
2022/04/28 00:25:27;;;;;;;11.90;7.30;;;8.50;91.00;;;;;;5015280;28;21006;-75
2022/04/28 00:27:54;;;;;;;14.37;8.57;;;8.40;91.20;;;;;;5024840;28;20579;-75
2022/04/28 00:30:20;;;;;;;13.00;7.70;;;8.40;91.30;;;;;;5022653;28;20178;-74
2022/04/28 00:32:46;;;;;;;15.00;8.77;;;8.40;91.50;;;;;;5022937;28;20472;-75
2022/04/28 00:35:12;;;;;;;13.87;8.43;;;8.40;91.50;;;;;;5026505;28;20489;-73
2022/04/28 00:37:38;;;;;;;14.00;7.73;;;8.40;91.50;;;;;;5022286;28;20451;-76
2022/04/28 00:40:04;;;;;;;13.40;8.00;;;8.30;91.50;;;;;;5022055;28;20305;-77
2022/04/28 00:42:30;;;;;;;17.63;9.60;;;8.30;91.50;;;;;;5017535;28;20424;-74
2022/04/28 00:44:56;;;;;;;13.23;8.30;;;8.20;91.50;;;;;;5020646;28;20900;-75
2022/04/28 00:50:38;;;;;;;13.90;8.40;;;8.20;91.60;;;;;;5017149;28;20610;-77
2022/04/28 00:52:56;;;;;;;11.57;7.90;;;8.20;91.70;;;;;;5020609;28;20514;-76
2022/04/28 00:55:21;;;;;;;12.53;7.73;;;8.10;91.90;;;;;;5024071;28;20423;-74
2022/04/28 00:57:47;;;;;;;16.13;8.40;;;8.10;92.00;;;;;;5020357;28;20428;-77
2022/04/28 01:00:14;;;;;;;15.90;8.57;;;8.10;91.90;;;;;;5015726;28;20698;-76
2022/04/28 01:02:40;;;;;;;13.23;8.80;;;8.10;91.90;;;;;;5022539;28;20428;-75
2022/04/28 01:05:05;;;;;;;15.60;9.20;;;8.00;91.70;;;;;;5020753;28;20830;-74
2022/04/28 01:07:31;;;;;;;18.80;8.83;;;8.00;91.90;;;;;;5024154;28;20344;-76
2022/04/28 01:09:57;;;;;;;11.70;7.90;;;8.00;92.10;;;;;;5022009;28;20210;-75
2022/04/28 01:12:24;;;;;;;13.40;8.93;;;8.00;92.00;;;;;;5020042;28;20209;-74
2022/04/28 01:14:50;;;;;;;15.50;8.53;;;7.90;91.90;;;;;;5016618;28;20193;-77
2022/04/28 01:17:16;;;;;;;19.57;8.73;;;7.90;92.00;;;;;;5021809;28;20425;-78
2022/04/28 01:19:42;;;;;;;14.23;8.10;;;7.90;92.10;;;;;;5015113;28;21012;-77
2022/04/28 01:22:08;;;;;;;14.13;8.90;;;7.80;92.10;;;;;;5015819;28;20186;-75
2022/04/28 01:24:36;;;;;;;14.47;8.50;;;7.90;92.10;;;;;;5014058;28;20190;-73
2022/04/28 01:27:03;;;;;;;12.70;7.60;;;7.90;92.10;;;;;;5018063;28;20456;-74
2022/04/28 01:29:33;;;;;;;13.60;8.30;;;7.90;92.10;;;;;;5024870;28;21025;-77
2022/04/28 01:31:59;;;;;;;11.73;7.83;;;7.90;91.90;;;;;;5013019;28;20607;-74
2022/04/28 01:34:25;;;;;;;18.43;8.13;;;7.80;91.80;;;;;;5018197;28;20431;-75
2022/04/28 01:36:50;;;;;;;15.33;8.00;;;7.80;91.90;;;;;;5012862;28;20414;-75
2022/04/28 01:39:16;;;;;;;13.77;7.67;;;7.80;92.10;;;;;;5018956;28;20331;-74
2022/04/28 01:41:42;;;;;;;13.80;9.07;;;7.80;92.10;;;;;;5016900;28;20182;-75
2022/04/28 01:44:09;;;;;;;13.37;8.40;;;7.80;92.10;;;;;;5015115;28;20652;-76
2022/04/28 01:46:35;;;;;;;13.03;8.30;;;7.80;92.10;;;;;;5015897;28;20428;-74
2022/04/28 01:49:00;;;;;;;15.70;9.17;;;7.80;92.10;;;;;;5019471;28;20436;-75
2022/04/28 01:56:55;;;;;;;15.70;8.77;;;7.60;92.30;;;;;;5014593;28;20432;-75
2022/04/28 01:59:20;;;;;;;13.60;8.57;;;7.70;92.10;;;;;;5019256;28;20468;-75
2022/04/28 02:01:46;;;;;;;15.33;8.87;;;7.70;92.00;;;;;;5015599;28;20185;-74
2022/04/28 02:04:12;;;;;;;13.80;8.30;;;7.70;92.10;;;;;;5021791;28;20185;-75
2022/04/28 02:06:37;;;;;;;10.37;8.00;;;7.70;92.10;;;;;;5014954;28;20192;-76
2022/04/28 02:09:04;;;;;;;14.90;8.27;;;7.70;92.10;;;;;;5027709;28;20197;-78
2022/04/28 02:11:29;;;;;;;14.00;8.03;;;7.60;92.10;;;;;;5015638;28;20584;-75
2022/04/28 02:13:55;;;;;;;16.53;8.33;;;7.60;92.10;;;;;;5015708;28;20439;-73
2022/04/28 02:16:21;;;;;;;12.60;7.63;;;7.60;92.10;;;;;;5019012;28;20249;-77
2022/04/28 02:18:46;;;;;;;14.83;8.00;;;7.60;92.30;;;;;;5022578;28;20244;-75
2022/04/28 02:21:12;;;;;;;12.63;7.80;;;7.60;92.30;;;;;;5018761;28;20186;-77
2022/04/28 02:23:38;;;;;;;14.47;8.33;;;7.60;92.30;;;;;;5020404;28;20185;-74
2022/04/28 02:26:04;;;;;;;13.50;8.20;;;7.60;92.30;;;;;;5019184;28;20215;-74
2022/04/28 02:28:29;;;;;;;13.00;8.13;;;7.60;92.30;;;;;;5019607;28;20295;-77
2022/04/28 02:30:55;;;;;;;12.20;7.50;;;7.50;92.30;;;;;;5020334;28;20421;-75
2022/04/28 02:33:21;;;;;;;13.07;8.23;;;7.50;92.40;;;;;;5016966;28;20216;-77
2022/04/28 02:35:47;;;;;;;16.63;9.07;;;7.50;92.50;;;;;;5014532;28;20260;-75
2022/04/28 02:38:13;;;;;;;14.93;8.60;;;7.40;92.50;;;;;;5012553;28;20197;-75
2022/04/28 02:40:38;;;;;;;14.10;8.63;;;7.40;92.60;;;;;;5019270;28;20189;-76
2022/04/28 02:43:04;;;;;;;14.10;8.20;;;7.30;92.60;;;;;;5014579;28;20416;-73
2022/04/28 02:45:30;;;;;;;16.90;9.67;;;7.30;92.80;;;;;;5016418;28;20185;-77
2022/04/28 02:47:56;;;;;;;18.07;9.13;;;7.30;93.00;;;;;;5018704;28;20202;-74
2022/04/28 02:50:22;;;;;;;14.37;8.67;;;7.20;93.10;;;;;;5023843;28;20264;-75
2022/04/28 02:52:51;;;;;;;16.00;8.80;;;7.30;93.10;;;;;;5020364;28;20205;-74
2022/04/28 02:55:17;;;;;;;17.33;9.03;;;7.20;93.20;;;;;;5014472;28;20417;-73
2022/04/28 02:57:42;;;;;;;18.23;9.80;;;7.20;93.20;;;;;;5012719;28;20447;-74
2022/04/28 03:00:09;;;;;;;16.10;10.10;;;7.20;93.30;;;;;;5012211;28;20269;-74
2022/04/28 03:02:35;;;;;;;14.33;8.73;;;7.10;93.30;;;;;;5016017;28;20285;-74
2022/04/28 03:05:04;;;;;;;19.43;9.60;;;7.10;93.40;;;;;;5018994;28;20475;-75
2022/04/28 03:12:59;;;;;;;18.03;9.20;;;7.10;93.30;;;;;;4994009;28;20588;-75
2022/04/28 03:15:26;;;;;;;15.70;9.17;;;7.00;93.40;;;;;;5004385;28;20498;-75
2022/04/28 03:17:51;;;;;;;17.40;9.47;;;7.00;93.60;;;;;;5043228;28;20178;-75
2022/04/28 03:20:17;;;;;;;30.17;10.90;;;6.90;93.80;;;;;;5023951;28;20500;-73
2022/04/28 03:22:43;;;;;;;18.40;9.33;;;6.90;93.90;;;;;;5033093;28;20223;-75
2022/04/28 03:25:10;;;;;;;16.83;9.47;;;6.80;94.00;;;;;;5020482;28;20182;-74
2022/04/28 03:27:36;;;;;;;22.13;10.60;;;6.80;94.20;;;;;;5014678;28;20429;-73
2022/04/28 03:30:03;;;;;;;18.93;9.27;;;6.80;94.40;;;;;;5013915;28;20446;-74
2022/04/28 03:32:29;;;;;;;18.90;10.13;;;6.80;94.40;;;;;;5015215;28;20460;-77
2022/04/28 03:34:55;;;;;;;15.87;9.03;;;6.80;94.40;;;;;;5015357;28;20514;-73
2022/04/28 03:37:21;;;;;;;17.07;9.87;;;6.80;94.50;;;;;;5034258;28;20460;-73
2022/04/28 03:39:46;;;;;;;16.57;9.50;;;6.80;94.40;;;;;;5037902;28;20223;-74
2022/04/28 03:42:12;;;;;;;16.37;9.07;;;6.70;94.10;;;;;;5024439;28;20197;-75
2022/04/28 03:44:38;;;;;;;19.63;11.33;;;6.70;94.00;;;;;;5015261;28;20595;-77
2022/04/28 03:47:04;;;;;;;20.23;10.07;;;6.70;94.10;;;;;;5018675;28;20189;-74
2022/04/28 03:49:30;;;;;;;17.17;9.20;;;6.70;94.00;;;;;;5016532;28;20256;-74
2022/04/28 03:51:55;;;;;;;16.87;10.70;;;6.70;93.80;;;;;;5012693;28;20460;-75
2022/04/28 03:54:21;;;;;;;20.13;10.90;;;6.70;93.70;;;;;;5011236;28;20197;-77
2022/04/28 03:56:47;;;;;;;18.43;9.90;;;6.60;93.80;;;;;;5013596;28;20590;-77
2022/04/28 03:59:13;;;;;;;18.90;8.80;;;6.60;94.00;;;;;;5013159;28;20473;-75
2022/04/28 04:01:39;;;;;;;23.33;11.10;;;6.70;94.00;;;;;;5011797;28;20429;-78
2022/04/28 04:04:05;;;;;;;23.50;10.83;;;6.70;94.10;;;;;;5012254;28;20833;-76
2022/04/28 04:06:31;;;;;;;21.60;10.33;;;6.70;94.20;;;;;;5014797;28;20648;-74
2022/04/28 04:08:58;;;;;;;19.67;10.53;;;6.70;94.30;;;;;;5015575;28;20205;-72
2022/04/28 04:11:24;;;;;;;20.73;9.70;;;6.60;94.40;;;;;;5017974;28;20452;-73
2022/04/28 04:13:50;;;;;;;21.43;11.40;;;6.60;94.60;;;;;;5015731;28;20560;-73
2022/04/28 04:16:16;;;;;;;23.90;12.53;;;6.70;94.70;;;;;;5019994;28;20177;-73
2022/04/28 04:18:42;;;;;;;22.87;11.10;;;6.70;94.70;;;;;;5016668;28;20536;-74
2022/04/28 04:21:08;;;;;;;22.43;11.90;;;6.70;94.80;;;;;;5018260;28;20423;-73
2022/04/28 04:23:34;;;;;;;27.90;13.10;;;6.70;94.70;;;;;;5018561;28;20252;-74
2022/04/28 04:26:01;;;;;;;29.60;14.33;;;6.70;94.70;;;;;;5014783;28;20949;-74
2022/04/28 04:28:27;;;;;;;23.30;11.83;;;6.60;94.80;;;;;;5020343;28;20447;-76
2022/04/28 04:33:37;;;;;;;23.93;12.23;;;6.70;95.00;;;;;;5018385;28;20554;-73
2022/04/28 04:36:04;;;;;;;22.70;12.83;;;6.70;94.90;;;;;;5023353;28;20444;-75
2022/04/28 04:38:30;;;;;;;26.93;12.87;;;6.70;94.70;;;;;;5017304;28;20205;-75
2022/04/28 04:40:56;;;;;;;24.30;12.33;;;6.70;94.70;;;;;;5020126;28;20503;-74
2022/04/28 04:43:21;;;;;;;26.80;14.00;;;6.70;94.80;;;;;;5025837;28;20421;-74
2022/04/28 04:45:47;;;;;;;22.77;12.03;;;6.70;94.70;;;;;;5028335;28;20460;-76
2022/04/28 04:48:13;;;;;;;26.93;12.60;;;6.70;94.70;;;;;;5025556;28;20232;-73
2022/04/28 04:50:39;;;;;;;20.67;11.73;;;6.70;94.60;;;;;;5033514;28;20197;-76
2022/04/28 04:53:06;;;;;;;18.80;11.10;;;6.70;94.70;;;;;;5025609;28;20206;-75
2022/04/28 04:55:33;;;;;;;18.37;11.00;;;6.80;94.60;;;;;;5023181;28;20425;-75
2022/04/28 04:57:59;;;;;;;22.33;11.43;;;6.80;94.30;;;;;;5025569;28;20476;-73
2022/04/28 05:00:25;;;;;;;25.37;11.80;;;6.80;94.00;;;;;;5028885;28;20524;-74
2022/04/28 05:02:51;;;;;;;23.10;10.77;;;6.80;93.80;;;;;;5026976;28;20444;-74
2022/04/28 05:05:17;;;;;;;20.30;11.80;;;6.80;93.70;;;;;;5019635;28;20194;-73
2022/04/28 05:07:42;;;;;;;17.00;10.80;;;6.90;93.60;;;;;;5016230;28;20891;-75
2022/04/28 05:10:09;;;;;;;20.60;12.13;;;6.90;93.40;;;;;;5012890;28;20261;-76
2022/04/28 05:12:35;;;;;;;21.33;11.47;;;6.90;93.40;;;;;;5013367;28;20621;-76
2022/04/28 05:15:01;;;;;;;21.13;11.10;;;7.00;93.20;;;;;;5022832;28;20412;-75
2022/04/28 05:17:26;;;;;;;22.57;11.83;;;7.00;93.00;;;;;;5019464;28;20624;-73
2022/04/28 05:19:52;;;;;;;19.63;11.57;;;7.10;92.80;;;;;;5023395;28;20277;-74
2022/04/28 05:22:18;;;;;;;21.13;11.60;;;7.10;92.60;;;;;;5023329;28;20197;-73
2022/04/28 05:24:44;;;;;;;21.03;11.87;;;7.20;92.50;;;;;;5022459;28;20430;-74
2022/04/28 05:27:10;;;;;;;21.53;12.10;;;7.20;92.30;;;;;;5026364;28;20530;-75
2022/04/28 05:29:36;;;;;;;25.37;11.13;;;7.20;92.40;;;;;;5018207;28;20692;-75
2022/04/28 05:32:01;;;;;;;23.23;13.20;;;7.20;92.60;;;;;;5022949;28;20555;-73
2022/04/28 05:34:27;;;;;;;23.40;12.77;;;7.30;92.60;;;;;;5017121;28;20269;-73
2022/04/28 05:36:53;;;;;;;21.10;12.70;;;7.20;92.60;;;;;;5023983;28;20269;-75
2022/04/28 05:39:19;;;;;;;24.73;12.70;;;7.30;92.70;;;;;;5018923;28;20616;-75
2022/04/28 05:41:45;;;;;;;23.40;12.50;;;7.40;92.70;;;;;;5028338;28;20783;-74
2022/04/28 05:46:55;;;;;;;23.17;12.43;;;7.60;92.70;;;;;;5020272;28;20411;-75
2022/04/28 05:49:21;;;;;;;24.63;12.67;;;7.60;92.70;;;;;;5019887;28;20523;-78
2022/04/28 05:51:48;;;;;;;23.90;14.00;;;7.70;92.50;;;;;;5017025;28;20261;-76
2022/04/28 05:54:18;;;;;;;22.10;12.03;;;7.80;92.50;;;;;;5019307;28;20422;-73
2022/04/28 05:56:43;;;;;;;21.00;12.90;;;7.90;92.30;;;;;;5016217;28;20417;-77
2022/04/28 05:59:10;;;;;;;27.10;13.80;;;8.00;92.00;;;;;;5014960;28;20441;-73
2022/04/28 06:01:37;;;;;;;25.00;13.80;;;8.00;91.90;;;;;;5017038;28;20182;-75
2022/04/28 06:04:04;;;;;;;25.33;13.57;;;8.10;91.60;;;;;;5016518;28;20490;-74
2022/04/28 06:06:29;;;;;;;23.40;12.90;;;8.20;91.40;;;;;;5020054;28;20429;-74
2022/04/28 06:08:55;;;;;;;27.43;13.13;;;8.30;91.30;;;;;;5015487;28;20436;-74
2022/04/28 06:11:21;;;;;;;22.20;13.27;;;8.40;90.90;;;;;;5014566;28;20186;-74
2022/04/28 06:13:47;;;;;;;26.07;13.30;;;8.50;90.60;;;;;;5016615;28;20464;-75
2022/04/28 06:16:12;;;;;;;30.20;13.80;;;8.60;90.20;;;;;;5023048;28;20178;-75
2022/04/28 06:18:39;;;;;;;23.40;12.77;;;8.70;90.00;;;;;;5021607;28;20201;-73
2022/04/28 06:21:05;;;;;;;21.90;12.63;;;8.80;89.90;;;;;;5013191;28;20182;-73
2022/04/28 06:23:30;;;;;;;22.60;12.10;;;8.90;89.60;;;;;;5011721;28;20423;-73
2022/04/28 06:25:56;;;;;;;24.60;12.50;;;9.00;89.00;;;;;;5015806;28;20417;-75
2022/04/28 06:28:22;;;;;;;23.37;11.90;;;9.10;88.70;;;;;;5016483;28;20197;-74
2022/04/28 06:30:48;;;;;;;21.40;12.33;;;9.20;88.30;;;;;;5013761;28;20610;-79
2022/04/28 06:33:13;;;;;;;25.83;13.83;;;9.20;88.00;;;;;;5020830;28;20230;-74
2022/04/28 06:35:39;;;;;;;21.97;13.40;;;9.30;87.80;;;;;;5015325;28;20256;-75
2022/04/28 06:38:05;;;;;;;24.00;13.40;;;9.30;87.80;;;;;;5024008;28;20225;-74
2022/04/28 06:40:31;;;;;;;22.33;14.17;;;9.40;87.60;;;;;;5015750;28;20253;-76
2022/04/28 06:42:56;;;;;;;29.77;14.10;;;9.40;87.60;;;;;;5018202;28;20623;-78
2022/04/28 06:45:23;;;;;;;26.73;14.70;;;9.50;87.60;;;;;;5014890;28;20186;-75
2022/04/28 06:47:49;;;;;;;32.83;14.47;;;9.60;87.40;;;;;;5022189;28;20187;-76
2022/04/28 06:50:15;;;;;;;26.77;13.63;;;9.70;87.40;;;;;;5018277;28;20799;-73
2022/04/28 06:52:41;;;;;;;28.90;13.77;;;9.80;86.90;;;;;;5021830;28;20197;-74
2022/04/28 06:55:08;;;;;;;24.40;13.73;;;9.90;86.50;;;;;;5020513;28;20716;-74
2022/04/28 06:57:35;;;;;;;22.80;13.37;;;10.00;86.00;;;;;;5015480;28;20564;-73
2022/04/28 07:00:03;;;;;;;21.17;12.47;;;10.10;85.70;;;;;;5013650;28;20544;-73
2022/04/28 07:02:28;;;;;;;22.10;14.33;;;10.20;85.60;;;;;;5023598;28;20424;-74
2022/04/28 07:04:54;;;;;;;22.47;13.20;;;10.30;85.20;;;;;;5021318;28;20904;-75
2022/04/28 07:07:20;;;;;;;23.03;13.30;;;10.40;84.70;;;;;;5019006;28;20238;-75
2022/04/28 07:09:46;;;;;;;19.83;11.70;;;10.40;84.40;;;;;;5015606;28;20206;-74
2022/04/28 07:12:12;;;;;;;18.57;10.73;;;10.50;81.90;;;;;;5013546;28;20205;-74
2022/04/28 07:14:37;;;;;;;17.93;10.20;;;10.60;80.30;;;;;;5017067;28;20589;-77
2022/04/28 07:17:04;;;;;;;15.87;10.93;;;10.60;79.70;;;;;;5007856;28;20496;-74
2022/04/28 07:19:29;;;;;;;15.93;10.50;;;10.60;80.50;;;;;;5018050;28;20469;-77
2022/04/28 07:21:55;;;;;;;19.37;10.30;;;10.70;80.60;;;;;;5020954;28;20178;-77
2022/04/28 07:24:21;;;;;;;20.80;11.10;;;10.80;79.50;;;;;;5013075;28;20181;-75
2022/04/28 07:26:47;;;;;;;15.53;9.77;;;10.90;78.60;;;;;;5016202;28;20188;-75
2022/04/28 07:29:12;;;;;;;18.73;11.10;;;11.10;77.70;;;;;;5013605;28;20217;-77
2022/04/28 07:31:38;;;;;;;18.27;11.00;;;11.10;77.10;;;;;;5019529;28;20185;-75
2022/04/28 07:34:04;;;;;;;21.67;11.73;;;11.20;77.60;;;;;;5011636;28;20673;-73
2022/04/28 07:36:30;;;;;;;15.70;10.00;;;11.30;77.40;;;;;;5019775;28;20196;-75
2022/04/28 07:38:56;;;;;;;18.37;11.83;;;11.40;76.50;;;;;;5011917;28;20473;-76
2022/04/28 07:41:22;;;;;;;21.20;11.30;;;11.60;76.20;;;;;;5022450;28;20458;-76
2022/04/28 07:43:48;;;;;;;23.83;10.90;;;11.60;75.40;;;;;;5015044;28;20190;-75
2022/04/28 07:46:13;;;;;;;19.17;11.10;;;11.70;75.40;;;;;;5016176;28;20189;-76
2022/04/28 07:48:40;;;;;;;19.10;10.63;;;11.70;74.90;;;;;;5013647;28;20449;-77
2022/04/28 07:51:06;;;;;;;18.50;11.47;;;11.80;75.20;;;;;;5015320;28;20193;-74
2022/04/28 07:53:32;;;;;;;19.70;10.70;;;11.90;74.60;;;;;;5008714;28;20491;-74
2022/04/28 07:56:13;;;;;;;14.40;10.10;;;12.00;75.10;;;;;;5015644;28;20479;-76
2022/04/28 07:58:40;;;;;;;16.10;10.73;;;12.10;74.90;;;;;;5017291;28;20491;-77
2022/04/28 08:01:06;;;;;;;18.63;11.30;;;12.30;73.90;;;;;;5013471;28;20936;-74
2022/04/28 08:03:32;;;;;;;21.60;10.73;;;12.40;74.00;;;;;;5027062;28;20487;-74
2022/04/28 08:05:58;;;;;;;17.20;11.60;;;12.50;73.50;;;;;;5016510;28;20865;-75
2022/04/28 08:08:24;;;;;;;18.73;10.53;;;12.50;73.50;;;;;;5018418;28;20460;-75
2022/04/28 08:10:50;;;;;;;15.40;9.30;;;12.60;72.40;;;;;;5021712;28;20429;-76
2022/04/28 08:13:17;;;;;;;14.90;9.23;;;12.90;72.10;;;;;;5018191;28;20464;-77
2022/04/28 08:15:43;;;;;;;14.53;9.07;;;13.00;70.70;;;;;;5023571;28;20435;-77
2022/04/28 08:18:09;;;;;;;13.30;8.23;;;13.10;70.70;;;;;;5014089;28;20471;-76
2022/04/28 08:20:36;;;;;;;12.03;8.63;;;13.30;70.10;;;;;;5013898;28;20425;-74
2022/04/28 08:23:02;;;;;;;14.33;8.33;;;13.50;69.40;;;;;;5012964;28;20446;-75
2022/04/28 08:25:28;;;;;;;15.43;8.57;;;13.60;69.40;;;;;;5015188;28;20915;-76
2022/04/28 08:27:53;;;;;;;11.07;7.20;;;13.80;68.50;;;;;;5013427;28;20182;-76
2022/04/28 08:30:20;;;;;;;11.57;7.67;;;13.90;67.90;;;;;;5007735;28;20204;-76
2022/04/28 08:32:45;;;;;;;13.60;7.53;;;14.00;66.10;;;;;;5017975;28;20205;-76
2022/04/28 08:35:11;;;;;;;12.10;7.83;;;14.10;66.10;;;;;;5016873;28;20508;-75
2022/04/28 08:37:39;;;;;;;12.37;7.40;;;14.10;65.30;;;;;;5022926;28;20295;-74
2022/04/28 08:40:06;;;;;;;10.07;6.70;;;14.10;64.50;;;;;;5022802;28;20219;-73
2022/04/28 08:42:34;;;;;;;11.93;6.70;;;14.20;65.30;;;;;;5022425;28;20447;-75
2022/04/28 08:45:00;;;;;;;9.80;6.43;;;14.30;65.60;;;;;;5022751;28;20432;-76
2022/04/28 08:47:26;;;;;;;8.30;6.30;;;14.50;63.80;;;;;;5025281;28;20427;-75
2022/04/28 08:49:52;;;;;;;9.10;6.27;;;14.50;62.30;;;;;;5033071;28;20478;-76
2022/04/28 08:52:19;;;;;;;11.93;7.00;;;14.50;62.30;;;;;;5023123;28;20871;-74
2022/04/28 08:54:47;;;;;;;12.20;6.97;;;14.60;62.90;;;;;;5021894;28;20186;-75
2022/04/28 08:57:13;;;;;;;10.00;6.93;;;14.80;62.90;;;;;;5018902;28;20420;-74
2022/04/28 08:59:40;;;;;;;10.30;6.07;;;14.90;62.20;;;;;;5015750;28;21048;-76
2022/04/28 09:02:10;;;;;;;10.63;7.10;;;14.80;62.20;;;;;;5016975;28;20436;-74
2022/04/28 09:04:36;;;;;;;16.80;9.63;;;14.90;62.30;;;;;;5017223;28;20413;-75
2022/04/28 09:07:05;;;;;;;9.53;6.17;;;15.00;61.70;;;;;;5016455;28;20472;-75
2022/04/28 09:09:33;;;;;;;11.87;6.53;;;15.00;61.00;;;;;;5016099;28;20202;-75
2022/04/28 09:12:01;;;;;;;11.90;6.50;;;15.00;58.90;;;;;;5020553;28;20975;-75
2022/04/28 09:14:27;;;;;;;7.67;5.60;;;15.00;58.50;;;;;;5016160;28;20487;-74
2022/04/28 09:17:02;;;;;;;7.23;5.87;;;15.10;58.50;;;;;;5015167;28;20507;-75
2022/04/28 09:19:39;;;;;;;8.33;5.63;;;15.20;57.60;;;;;;5018627;28;20897;-76
2022/04/28 09:22:12;;;;;;;9.13;6.03;;;15.30;57.20;;;;;;5008577;28;20500;-75
2022/04/28 09:24:40;;;;;;;8.20;5.50;;;15.30;56.00;;;;;;5013836;28;20420;-75
2022/04/28 09:27:08;;;;;;;8.17;5.40;;;15.40;53.20;;;;;;5012237;28;20413;-76
2022/04/28 09:29:39;;;;;;;7.93;5.40;;;15.50;53.00;;;;;;5026817;28;20455;-75
2022/04/28 09:32:15;;;;;;;5.87;4.80;;;15.50;53.70;;;;;;5024433;28;20840;-74
2022/04/28 09:34:49;;;;;;;10.30;5.40;;;15.70;53.70;;;;;;5022367;28;20448;-76
2022/04/28 09:37:19;;;;;;;8.87;4.80;;;15.70;52.50;;;;;;5021477;28;20925;-77
2022/04/28 09:42:39;;;;;;;9.77;4.37;;;15.90;50.70;;;;;;5023305;28;20424;-75
2022/04/28 09:45:06;;;;;;;9.40;4.53;;;15.90;49.70;;;;;;5013789;28;20449;-75
2022/04/28 09:47:33;;;;;;;8.10;5.10;;;16.00;48.20;;;;;;5012551;28;20456;-75
2022/04/28 09:49:59;;;;;;;7.17;4.63;;;16.10;48.70;;;;;;5019652;28;20491;-73
2022/04/28 09:52:31;;;;;;;6.80;4.33;;;16.10;47.90;;;;;;5021182;28;20463;-75
2022/04/28 09:54:59;;;;;;;6.47;4.60;;;16.00;48.30;;;;;;5019418;28;20830;-75
2022/04/28 09:57:26;;;;;;;8.13;5.20;;;15.90;48.10;;;;;;5012572;28;20450;-75
2022/04/28 09:59:57;;;;;;;10.43;5.10;;;16.00;48.70;;;;;;5020526;28;20590;-75
2022/04/28 10:02:25;;;;;;;21.13;5.93;;;16.00;47.70;;;;;;5013911;28;20435;-75
2022/04/28 10:04:52;;;;;;;14.43;7.93;;;16.00;48.10;;;;;;5014547;28;20417;-76
2022/04/28 10:07:19;;;;;;;7.50;5.77;;;16.10;48.50;;;;;;5013722;28;20940;-74
2022/04/28 10:09:48;;;;;;;5.40;4.87;;;16.30;47.40;;;;;;5013170;28;20983;-76
2022/04/28 10:12:19;;;;;;;7.93;5.47;;;16.40;46.70;;;;;;5013232;28;20479;-76
2022/04/28 10:14:47;;;;;;;7.60;5.17;;;16.50;46.10;;;;;;5013496;28;20473;-76
2022/04/28 10:17:23;;;;;;;8.67;4.77;;;16.70;45.40;;;;;;5021655;28;20580;-74
2022/04/28 10:19:57;;;;;;;9.50;4.30;;;16.90;44.50;;;;;;5017132;28;21005;-76
2022/04/28 10:22:32;;;;;;;7.80;4.87;;;17.10;43.70;;;;;;5011645;28;20432;-76
2022/04/28 10:33:21;;;;;;;7.50;4.73;;;18.40;40.80;;;;;;5009505;28;20461;-74
2022/04/28 10:35:49;;;;;;;5.23;4.10;;;18.60;39.80;;;;;;5015593;28;20426;-76
2022/04/28 10:38:22;;;;;;;8.30;5.57;;;18.70;40.00;;;;;;5015644;28;20446;-75
2022/04/28 10:40:59;;;;;;;7.47;4.60;;;18.80;39.80;;;;;;5023218;28;20420;-75
2022/04/28 10:43:37;;;;;;;5.97;4.40;;;19.10;40.40;;;;;;5013423;28;20416;-74
2022/04/28 10:46:09;;;;;;;5.00;3.90;;;19.30;39.40;;;;;;5018114;28;20420;-76
2022/04/28 10:48:38;;;;;;;6.40;4.13;;;19.40;39.10;;;;;;5009584;28;20441;-76
2022/04/28 10:51:12;;;;;;;5.13;3.90;;;19.70;38.60;;;;;;5013658;28;20853;-76
2022/04/28 10:54:14;;;;;;;5.60;4.30;;;19.90;37.80;;;;;;5009380;28;20997;-76
2022/04/28 10:56:40;;;;;;;6.23;4.63;;;20.00;37.60;;;;;;5010154;28;20515;-76
2022/04/28 10:59:34;;;;;;;5.67;4.87;;;19.90;37.40;;;;;;5011953;28;20537;-75
2022/04/28 11:02:15;;;;;;;7.20;5.03;;;19.50;38.00;;;;;;5009429;28;20189;-74
2022/04/28 11:05:03;;;;;;;6.07;4.20;;;19.10;37.90;;;;;;5013457;28;20422;-74
2022/04/28 11:07:31;;;;;;;8.20;5.03;;;18.90;38.30;;;;;;5010001;28;20447;-75
2022/04/28 11:10:02;;;;;;;5.63;4.20;;;18.80;37.50;;;;;;5005337;28;20443;-75
2022/04/28 11:12:41;;;;;;;6.50;4.37;;;18.60;39.10;;;;;;5008290;28;20694;-75
2022/04/28 11:15:13;;;;;;;9.60;4.87;;;18.80;39.80;;;;;;5009454;28;20423;-77
2022/04/28 11:17:44;;;;;;;7.43;4.80;;;19.10;39.60;;;;;;5025056;28;20428;-75
2022/04/28 11:20:20;;;;;;;6.40;4.63;;;19.30;38.40;;;;;;5011204;28;20451;-74
2022/04/28 11:22:54;;;;;;;5.30;3.90;;;19.10;38.70;;;;;;5015071;28;20545;-76
2022/04/28 11:25:22;;;;;;;5.13;3.87;;;19.20;38.70;;;;;;5018896;28;20880;-77
2022/04/28 11:27:50;;;;;;;6.40;4.83;;;19.00;38.20;;;;;;5012117;28;20434;-76
2022/04/28 11:30:21;;;;;;;7.53;4.30;;;19.00;38.30;;;;;;5013509;28;20425;-74
2022/04/28 11:32:57;;;;;;;9.30;4.80;;;18.90;38.60;;;;;;5014987;28;20464;-74
2022/04/28 11:35:39;;;;;;;6.67;4.93;;;19.10;37.90;;;;;;5009703;28;20414;-75
2022/04/28 11:38:06;;;;;;;6.60;4.70;;;19.20;38.80;;;;;;5011861;28;20787;-76
2022/04/28 11:40:34;;;;;;;5.90;4.53;;;19.20;38.70;;;;;;5011577;28;20420;-77
2022/04/28 11:43:02;;;;;;;7.17;4.50;;;19.40;38.70;;;;;;5012566;28;20560;-75
2022/04/28 11:45:32;;;;;;;5.13;4.10;;;19.30;38.60;;;;;;5011394;28;20422;-74
2022/04/28 11:48:00;;;;;;;6.20;4.60;;;19.10;38.60;;;;;;5013637;28;20435;-75
2022/04/28 11:50:34;;;;;;;7.23;4.47;;;19.20;38.20;;;;;;5025224;28;20488;-78
2022/04/28 11:53:05;;;;;;;5.50;4.13;;;19.40;37.50;;;;;;5032362;28;20471;-76
2022/04/28 11:55:35;;;;;;;7.77;4.53;;;19.40;37.40;;;;;;5020384;28;20417;-76
2022/04/28 11:58:02;;;;;;;7.57;4.57;;;19.60;37.50;;;;;;5006376;28;20461;-76
2022/04/28 12:00:28;;;;;;;8.23;4.80;;;20.10;37.40;;;;;;5019247;28;20425;-75
2022/04/28 12:02:54;;;;;;;5.50;4.57;;;20.40;35.60;;;;;;5013981;28;20516;-76
2022/04/28 12:05:24;;;;;;;5.17;4.23;;;20.60;34.90;;;;;;5018277;28;20546;-76
2022/04/28 12:07:51;;;;;;;5.90;4.27;;;20.20;35.60;;;;;;5016223;28;20475;-76
2022/04/28 12:15:56;;;;;;;5.60;4.00;;;19.80;35.30;;;;;;5014982;28;20411;-75
2022/04/28 12:21:24;;;;;;;8.00;4.40;;;20.00;35.50;;;;;;5006618;28;20531;-75
2022/04/28 12:23:58;;;;;;;8.00;4.40;;;20.00;35.20;;;;;;5016838;28;20776;-75
2022/04/28 12:26:25;;;;;;;6.63;4.07;;;19.90;36.00;;;;;;5023887;28;21026;-76
2022/04/28 12:28:52;;;;;;;7.37;4.37;;;19.90;36.60;;;;;;5022565;28;20459;-76
2022/04/28 12:31:30;;;;;;;5.70;4.10;;;19.90;36.70;;;;;;5018803;28;20425;-74
2022/04/28 12:33:56;;;;;;;4.73;3.90;;;19.60;36.30;;;;;;5023431;28;20456;-75
2022/04/28 12:36:24;;;;;;;8.37;4.83;;;19.70;37.00;;;;;;5018688;28;20765;-75
2022/04/28 12:38:53;;;;;;;4.47;3.87;;;20.00;36.70;;;;;;5018912;28;20910;-75
2022/04/28 12:41:30;;;;;;;9.13;4.77;;;20.30;35.60;;;;;;5022748;28;20421;-76
2022/04/28 12:43:59;;;;;;;7.27;4.43;;;20.30;34.10;;;;;;5017114;28;20428;-75
2022/04/28 12:46:49;;;;;;;5.97;4.10;;;19.90;35.20;;;;;;5022003;28;20420;-74
2022/04/28 12:49:16;;;;;;;4.87;3.87;;;20.20;35.50;;;;;;5023308;28;20518;-76
2022/04/28 12:51:45;;;;;;;7.80;4.73;;;20.30;34.90;;;;;;5028113;28;20416;-75
2022/04/28 12:54:16;;;;;;;7.53;3.83;;;20.30;34.80;;;;;;5015067;28;20475;-75
2022/04/28 12:56:46;;;;;;;6.43;4.27;;;20.60;33.90;;;;;;5021224;28;20420;-76
2022/04/28 12:59:14;;;;;;;6.20;4.03;;;20.60;33.90;;;;;;5025995;28;20443;-76
2022/04/28 13:01:41;;;;;;;5.67;3.67;;;20.90;33.60;;;;;;5021321;28;20451;-76
2022/04/28 13:04:12;;;;;;;5.00;3.67;;;21.10;32.10;;;;;;5023796;28;20474;-75
2022/04/28 13:06:42;;;;;;;8.63;4.50;;;21.10;32.50;;;;;;5019950;28;20513;-75
2022/04/28 13:09:08;;;;;;;6.87;4.33;;;21.00;33.20;;;;;;5021545;28;20504;-76
2022/04/28 13:11:39;;;;;;;3.70;3.20;;;20.90;33.10;;;;;;5015571;28;20929;-77
2022/04/28 13:14:08;;;;;;;7.10;3.63;;;21.00;32.90;;;;;;5023155;28;20207;-77
2022/04/28 13:16:34;;;;;;;6.40;4.20;;;21.30;33.30;;;;;;5015760;28;20867;-75
2022/04/28 13:19:01;;;;;;;5.67;3.70;;;21.70;31.90;;;;;;5025570;28;20954;-76
2022/04/28 13:21:26;;;;;;;7.10;4.40;;;21.70;31.60;;;;;;5021837;28;20514;-76